x

Port Colborne (45142) Wave Buoy

10:00pm - Fri 22nd Aug 2014 All times are CDT. -5 hours from GMT.

  • Sig Wave height 0.7ft
  • Peak Period 2s
  • Wind
    9mph, 11mph gusts
  • Sea Temp 72°f
  • Air Temp 71°f
  • Sea Pressure 1015.5mb
  • Port Colborne
  • Port Colborne

More Historic Weather Station data

Upgrade to MSW Pro to gain access to the past 30 days of data for over 8000 Wavebouys and Weather Stations around the globe.

Join Pro

Comparision Forecast

View Surf forecast
   
Fri 08/22 10:00pm 0.7ft 2s 9 11 mph 1015.5mb 72f 71f
9:00pm 0.7ft 2s 11 13 mph 1015.4mb 73f 72f
8:00pm 0.3ft 2s 11 13 mph 1015.3mb 73f 73f
7:00pm 0.7ft 2s 9
mph
1014.9mb 73f 74f
6:00pm 0.3ft 2s 7 9 mph 1014.7mb 74f 74f
5:00pm 0.3ft 3s 9 13 mph 1014.4mb 75f 76f
4:00pm 0.3ft 3s 7
mph
1014.2mb 77f 75f
3:00pm 0.3ft 4s 2
mph
1014.4mb 76f 76f
2:00pm 0.3ft 4s 2
mph
1014.8mb 77f 74f
1:00pm 0.3ft 2s 2
mph
1015mb 74f 73f
12:00pm 0.3ft 4s  -  2 mph 1015.1mb 73f 72f
11:00am 0.3ft 2s 4
mph
1015.4mb 72f 70f
10:00am 0.3ft 2s 7 9 mph 1015.5mb 71f 69f
9:00am 0.3ft 2s 7 9 mph 1015.6mb 71f 68f
8:00am 0.3ft 2s 4 7 mph 1015.5mb 70f 68f
7:00am 0.3ft 2s 7 9 mph 1015.3mb 70f 68f
6:00am 0.3ft 2s 9 11 mph 1015mb 70f 68f
5:00am 0.3ft 2s 7 9 mph 1014.5mb 70f 68f
4:00am 0.3ft 3s 9 11 mph 1013.8mb 70f 68f
3:00am 0.7ft 3s 4 7 mph 1014.2mb 70f 69f
2:00am 0.7ft 3s 7 9 mph 1014.7mb 71f 70f
1:00am 0.7ft 3s 9 11 mph 1014.9mb 71f 71f
12:00am 0.7ft 3s 7 9 mph 1014.7mb 71f 71f
Thu 08/21 11:00pm 1ft 3s 9
mph
1014.8mb 71f 71f
10:00pm 1ft 3s 9 11 mph 1014.9mb 71f 71f
9:00pm 1ft 3s 9 11 mph 1014.8mb 71f 72f
8:00pm 1ft 3s 9
mph
1014.7mb 71f 71f
7:00pm 1ft 3s 9 11 mph 1014.2mb 71f 72f
6:00pm 0.7ft 3s 11 13 mph 1014.1mb 71f 72f
5:00pm 1ft 3s 9
mph
1014.1mb 71f 72f
4:00pm 1ft 3s 9 11 mph 1014.2mb 71f 72f
3:00pm 1ft 3s 7 9 mph 1014.3mb 71f 72f
2:00pm 1.3ft 3s 11 13 mph 1014.5mb 71f 71f
1:00pm 1.3ft 3s 13
mph
1014.9mb 71f 71f
12:00pm 1.3ft 3s 11 13 mph 1015mb 71f 71f
11:00am 1.3ft 4s 11 13 mph 1015.3mb 71f 71f
10:00am 1.3ft 4s 13 16 mph 1015.1mb 71f 71f
9:00am 1.3ft 4s 11 13 mph 1014.9mb 70f 70f
8:00am 1.3ft 4s 13 16 mph 1014.9mb 70f 70f
7:00am 1.3ft 3s 11 13 mph 1015mb 70f 71f
6:00am 1.3ft 3s 11
mph
1014.8mb 70f 70f
5:00am 1ft 3s 11 13 mph 1014.2mb 70f 71f
4:00am 1ft 3s 11 13 mph 1013.5mb 70f 71f
3:00am 0.7ft 2s 11 16 mph 1013.1mb 70f 71f
2:00am 0.7ft 4s 9
mph
1013mb 70f 71f
1:00am 0.7ft 4s 9
mph
1013.4mb 70f 71f
12:00am 0.7ft 4s 9 11 mph 1013.4mb 70f 71f
Wed 08/20 11:00pm 0.7ft 4s 9
mph
1013.1mb 70f 71f
10:00pm 0.7ft 4s 9
mph
1013.1mb 70f 71f
9:00pm 0.7ft 4s 7 9 mph 1012.9mb 71f 71f
8:00pm 0.7ft 4s 4
mph
1012.9mb 71f 71f
7:00pm 0.7ft 4s 4
mph
1012mb 71f 71f
6:00pm 0.7ft 4s 2
mph
1012.5mb 72f 72f
5:00pm 0.7ft 4s 4
mph
1012.7mb 72f 72f
4:00pm 0.7ft 4s 4 7 mph 1012.5mb 72f 72f
3:00pm 1ft 4s 2 4 mph 1012.7mb 72f 72f
2:00pm 1ft 4s  -  2 mph 1012.4mb 71f 71f
1:00pm 1ft 4s 2 4 mph 1012.6mb 71f 71f
12:00pm 1ft 4s 4
mph
1012.4mb 70f 71f
11:00am 1.3ft 4s 7
mph
1012.5mb 70f 71f
10:00am 1.3ft 4s 4 7 mph 1012.6mb 70f 70f
9:00am 1.6ft 4s 7 9 mph 1012.4mb 70f 70f
8:00am 2ft 4s 9 11 mph 1012mb 69f 69f
7:00am 2ft 4s 9 11 mph 1011.6mb 69f 70f
6:00am 1.3ft 4s 7 9 mph 1011.2mb 69f 70f
5:00am 1.3ft 4s 7 9 mph 1011.1mb 70f 70f
4:00am 1.3ft 4s 4
mph
1010.4mb 69f 70f
3:00am 1.3ft 4s 2 4 mph 1009.7mb 69f 70f
2:00am 1.6ft 4s 11 13 mph 1009.5mb 70f 70f
1:00am 2ft 3s 16 18 mph 1009.6mb 70f 71f
12:00am 0.7ft 2s 20 22 mph 1010.1mb 71f 71f
Tue 08/19 11:00pm 0.3ft 2s 16 18 mph 1010.2mb 71f 71f
10:00pm 0.3ft 3s 11 13 mph 1010mb 71f 72f
9:00pm  -  2s 7 9 mph 1010.3mb 71f 72f
8:00pm  -  7s 7
mph
1010.4mb 71f 72f
7:00pm  -  7s 4
mph
1010.2mb 72f 72f
6:00pm  -  7s 2
mph
1010.3mb 73f 72f
5:00pm  -  7s 2 4 mph 1010.5mb 73f 73f
4:00pm 0.3ft 7s 4
mph
1010.4mb 73f 72f
3:00pm 0.3ft 6s 4 7 mph 1010.3mb 73f 71f
2:00pm 0.3ft 6s 4
mph
1010.8mb 73f 70f
1:00pm 0.3ft 6s 4
mph
1011.5mb 73f 69f
12:00pm 0.3ft 2s 4
mph
1011.4mb 72f 67f
11:00am 0.3ft 2s 4 7 mph 1011.7mb 72f 66f
10:00am 0.3ft 2s 4
mph
1011.6mb 70f 66f
9:00am 0.3ft 2s 4 7 mph 1011.3mb 70f 66f
8:00am 0.3ft 4s 2
mph
1010.9mb 69f 66f
7:00am 0.3ft 2s 4 7 mph 1010.7mb 69f 65f
6:00am 0.7ft 4s 4 7 mph 1010.5mb 69f 65f
5:00am 0.7ft 2s 4 7 mph 1010.5mb 69f 65f